sensor_id;sensor_type;location;lat;lon;timestamp;pressure;altitude;pressure_sealevel;temperature;humidity
42177;BME280;28126;51.060;19.460;2022-08-19T00:00:25;99595.52;;;28.84;49.14
42177;BME280;28126;51.060;19.460;2022-08-19T00:03:26;99596.91;;;28.84;49.11
42177;BME280;28126;51.060;19.460;2022-08-19T00:06:29;99603.56;;;28.83;49.13
42177;BME280;28126;51.060;19.460;2022-08-19T00:09:31;99600.00;;;28.83;49.09
42177;BME280;28126;51.060;19.460;2022-08-19T00:12:34;99596.64;;;28.83;49.21
42177;BME280;28126;51.060;19.460;2022-08-19T00:15:36;99604.71;;;28.82;49.23
42177;BME280;28126;51.060;19.460;2022-08-19T00:18:38;99611.36;;;28.81;49.17
42177;BME280;28126;51.060;19.460;2022-08-19T00:21:41;99608.04;;;28.82;49.20
42177;BME280;28126;51.060;19.460;2022-08-19T00:24:43;99605.03;;;28.81;49.17
42177;BME280;28126;51.060;19.460;2022-08-19T00:27:44;99600.05;;;28.80;49.17
42177;BME280;28126;51.060;19.460;2022-08-19T00:30:47;99598.98;;;28.79;49.24
42177;BME280;28126;51.060;19.460;2022-08-19T00:33:48;99597.59;;;28.79;49.26
42177;BME280;28126;51.060;19.460;2022-08-19T00:36:54;99600.09;;;28.78;49.17
42177;BME280;28126;51.060;19.460;2022-08-19T00:39:55;99602.86;;;28.78;49.27
42177;BME280;28126;51.060;19.460;2022-08-19T00:42:57;99611.76;;;28.77;49.23
42177;BME280;28126;51.060;19.460;2022-08-19T00:45:59;99605.39;;;28.77;49.25
42177;BME280;28126;51.060;19.460;2022-08-19T00:49:05;99610.10;;;28.76;49.31
42177;BME280;28126;51.060;19.460;2022-08-19T00:52:15;99606.50;;;28.76;49.34
42177;BME280;28126;51.060;19.460;2022-08-19T00:55:22;99594.41;;;28.71;49.36
42177;BME280;28126;51.060;19.460;2022-08-19T00:58:29;99591.91;;;28.73;49.40
42177;BME280;28126;51.060;19.460;2022-08-19T01:01:31;99591.39;;;28.70;49.36
42177;BME280;28126;51.060;19.460;2022-08-19T01:04:32;99579.25;;;28.69;49.64
42177;BME280;28126;51.060;19.460;2022-08-19T01:07:35;99571.17;;;28.70;49.54
42177;BME280;28126;51.060;19.460;2022-08-19T01:10:46;99583.91;;;28.71;49.52
42177;BME280;28126;51.060;19.460;2022-08-19T01:13:49;99573.70;;;28.69;49.44
42177;BME280;28126;51.060;19.460;2022-08-19T01:16:53;99580.91;;;28.67;49.42
42177;BME280;28126;51.060;19.460;2022-08-19T01:19:56;99586.73;;;28.68;49.56
42177;BME280;28126;51.060;19.460;2022-08-19T01:22:59;99581.75;;;28.68;49.40
42177;BME280;28126;51.060;19.460;2022-08-19T01:26:00;99573.99;;;28.67;49.44
42177;BME280;28126;51.060;19.460;2022-08-19T01:29:02;99575.65;;;28.68;49.43
42177;BME280;28126;51.060;19.460;2022-08-19T01:32:06;99564.30;;;28.67;49.47
42177;BME280;28126;51.060;19.460;2022-08-19T01:35:10;99565.44;;;28.66;49.49
42177;BME280;28126;51.060;19.460;2022-08-19T01:38:25;99550.53;;;28.65;49.52
42177;BME280;28126;51.060;19.460;2022-08-19T01:41:27;99549.46;;;28.63;49.73
42177;BME280;28126;51.060;19.460;2022-08-19T01:44:30;99547.80;;;28.62;49.65
42177;BME280;28126;51.060;19.460;2022-08-19T01:47:31;99547.30;;;28.60;49.74
42177;BME280;28126;51.060;19.460;2022-08-19T01:50:36;99555.60;;;28.60;49.73
42177;BME280;28126;51.060;19.460;2022-08-19T01:53:38;99546.78;;;28.58;49.86
42177;BME280;28126;51.060;19.460;2022-08-19T01:56:40;99545.95;;;28.58;49.85
42177;BME280;28126;51.060;19.460;2022-08-19T01:59:43;99545.72;;;28.57;49.78
42177;BME280;28126;51.060;19.460;2022-08-19T02:02:47;99541.88;;;28.55;49.80
42177;BME280;28126;51.060;19.460;2022-08-19T02:05:59;99535.47;;;28.57;49.81
42177;BME280;28126;51.060;19.460;2022-08-19T02:08:57;99536.34;;;28.55;49.82
42177;BME280;28126;51.060;19.460;2022-08-19T02:11:59;99527.77;;;28.54;49.83
42177;BME280;28126;51.060;19.460;2022-08-19T02:15:02;99529.15;;;28.54;49.82
42177;BME280;28126;51.060;19.460;2022-08-19T02:18:05;99520.56;;;28.53;49.86
42177;BME280;28126;51.060;19.460;2022-08-19T02:21:09;99513.70;;;28.51;49.90
42177;BME280;28126;51.060;19.460;2022-08-19T02:24:11;99508.20;;;28.48;49.90
42177;BME280;28126;51.060;19.460;2022-08-19T02:27:15;99509.08;;;28.46;49.93
42177;BME280;28126;51.060;19.460;2022-08-19T02:30:17;99508.84;;;28.45;50.12
42177;BME280;28126;51.060;19.460;2022-08-19T02:33:20;99512.16;;;28.45;50.23
42177;BME280;28126;51.060;19.460;2022-08-19T02:36:22;99506.70;;;28.42;50.07
42177;BME280;28126;51.060;19.460;2022-08-19T02:39:25;99506.43;;;28.41;50.17
42177;BME280;28126;51.060;19.460;2022-08-19T02:42:27;99512.28;;;28.40;50.12
42177;BME280;28126;51.060;19.460;2022-08-19T02:45:38;99517.55;;;28.39;50.09
42177;BME280;28126;51.060;19.460;2022-08-19T02:48:36;99522.53;;;28.39;50.19
42177;BME280;28126;51.060;19.460;2022-08-19T02:51:43;99525.57;;;28.40;50.08
42177;BME280;28126;51.060;19.460;2022-08-19T02:54:45;99521.14;;;28.39;50.10
42177;BME280;28126;51.060;19.460;2022-08-19T02:57:47;99520.91;;;28.38;50.09
42177;BME280;28126;51.060;19.460;2022-08-19T03:00:53;99512.84;;;28.39;50.13
42177;BME280;28126;51.060;19.460;2022-08-19T03:03:56;99512.84;;;28.39;50.24
42177;BME280;28126;51.060;19.460;2022-08-19T03:06:58;99505.09;;;28.39;50.13
42177;BME280;28126;51.060;19.460;2022-08-19T03:09:59;99513.98;;;28.38;50.16
42177;BME280;28126;51.060;19.460;2022-08-19T03:13:01;99517.87;;;28.37;50.22
42177;BME280;28126;51.060;19.460;2022-08-19T03:16:05;99522.58;;;28.37;50.19
42177;BME280;28126;51.060;19.460;2022-08-19T03:19:07;99524.55;;;28.36;50.20
42177;BME280;28126;51.060;19.460;2022-08-19T03:22:08;99521.78;;;28.36;50.23
42177;BME280;28126;51.060;19.460;2022-08-19T03:25:10;99532.58;;;28.35;50.26
42177;BME280;28126;51.060;19.460;2022-08-19T03:28:15;99531.20;;;28.35;50.15
42177;BME280;28126;51.060;19.460;2022-08-19T03:31:20;99532.89;;;28.34;50.18
42177;BME280;28126;51.060;19.460;2022-08-19T03:34:29;99537.88;;;28.34;50.14
42177;BME280;28126;51.060;19.460;2022-08-19T03:37:31;99543.70;;;28.33;50.15
42177;BME280;28126;51.060;19.460;2022-08-19T03:40:36;99544.02;;;28.31;50.23
42177;BME280;28126;51.060;19.460;2022-08-19T03:43:40;99543.77;;;28.30;50.19
42177;BME280;28126;51.060;19.460;2022-08-19T03:46:42;99549.55;;;28.31;50.13
42177;BME280;28126;51.060;19.460;2022-08-19T03:49:44;99548.75;;;28.31;50.22
42177;BME280;28126;51.060;19.460;2022-08-19T03:52:51;99546.27;;;28.29;50.31
42177;BME280;28126;51.060;19.460;2022-08-19T03:55:53;99546.90;;;28.26;50.19
42177;BME280;28126;51.060;19.460;2022-08-19T03:58:57;99557.66;;;28.28;50.16
42177;BME280;28126;51.060;19.460;2022-08-19T04:02:03;99561.80;;;28.28;50.31
42177;BME280;28126;51.060;19.460;2022-08-19T04:05:06;99555.20;;;28.26;50.26
42177;BME280;28126;51.060;19.460;2022-08-19T04:08:09;99553.81;;;28.26;50.28
42177;BME280;28126;51.060;19.460;2022-08-19T04:11:15;99549.16;;;28.24;50.35
42177;BME280;28126;51.060;19.460;2022-08-19T04:14:20;99558.28;;;28.25;50.50
42177;BME280;28126;51.060;19.460;2022-08-19T04:17:22;99563.55;;;28.24;50.50
42177;BME280;28126;51.060;19.460;2022-08-19T04:20:23;99549.47;;;28.23;50.45
42177;BME280;28126;51.060;19.460;2022-08-19T04:23:25;99553.90;;;28.21;50.45
42177;BME280;28126;51.060;19.460;2022-08-19T04:26:33;99552.52;;;28.21;50.46
42177;BME280;28126;51.060;19.460;2022-08-19T04:29:35;99554.17;;;28.22;50.47
42177;BME280;28126;51.060;19.460;2022-08-19T04:32:36;99554.17;;;28.22;50.54
42177;BME280;28126;51.060;19.460;2022-08-19T04:35:40;99555.28;;;28.21;50.54
42177;BME280;28126;51.060;19.460;2022-08-19T04:38:43;99554.80;;;28.19;50.55
42177;BME280;28126;51.060;19.460;2022-08-19T04:41:46;99562.52;;;28.20;50.58
42177;BME280;28126;51.060;19.460;2022-08-19T04:45:12;99567.81;;;28.19;50.62
42177;BME280;28126;51.060;19.460;2022-08-19T04:48:13;99579.99;;;28.18;50.63
42177;BME280;28126;51.060;19.460;2022-08-19T04:51:15;99578.37;;;28.17;50.77
42177;BME280;28126;51.060;19.460;2022-08-19T04:54:18;99577.81;;;28.17;50.80
42177;BME280;28126;51.060;19.460;2022-08-19T04:57:22;99572.28;;;28.17;50.89
42177;BME280;28126;51.060;19.460;2022-08-19T05:00:23;99570.06;;;28.17;50.92
42177;BME280;28126;51.060;19.460;2022-08-19T05:03:26;99573.34;;;28.19;50.79
42177;BME280;28126;51.060;19.460;2022-08-19T05:06:28;99574.10;;;28.22;50.75
42177;BME280;28126;51.060;19.460;2022-08-19T05:09:30;99582.61;;;28.25;50.74
42177;BME280;28126;51.060;19.460;2022-08-19T05:12:33;99585.65;;;28.26;50.71
42177;BME280;28126;51.060;19.460;2022-08-19T05:15:35;99596.72;;;28.26;50.74
42177;BME280;28126;51.060;19.460;2022-08-19T05:18:38;99603.88;;;28.27;50.69
42177;BME280;28126;51.060;19.460;2022-08-19T05:22:00;99606.92;;;28.28;50.73
42177;BME280;28126;51.060;19.460;2022-08-19T05:25:21;99600.24;;;28.29;50.71
42177;BME280;28126;51.060;19.460;2022-08-19T05:28:23;99593.91;;;28.29;50.74
42177;BME280;28126;51.060;19.460;2022-08-19T05:31:25;99606.37;;;28.29;50.75
42177;BME280;28126;51.060;19.460;2022-08-19T05:34:27;99603.28;;;28.30;50.75
42177;BME280;28126;51.060;19.460;2022-08-19T05:37:28;99604.91;;;28.31;50.80
42177;BME280;28126;51.060;19.460;2022-08-19T05:40:30;99586.92;;;28.31;50.81
42177;BME280;28126;51.060;19.460;2022-08-19T05:43:31;99589.95;;;28.32;50.83
42177;BME280;28126;51.060;19.460;2022-08-19T05:46:33;99586.88;;;28.34;50.87
42177;BME280;28126;51.060;19.460;2022-08-19T05:49:36;99590.47;;;28.34;50.88
42177;BME280;28126;51.060;19.460;2022-08-19T05:52:38;99596.81;;;28.35;51.05
42177;BME280;28126;51.060;19.460;2022-08-19T05:55:40;99586.83;;;28.36;51.04
42177;BME280;28126;51.060;19.460;2022-08-19T05:58:44;99590.52;;;28.32;51.09
42177;BME280;28126;51.060;19.460;2022-08-19T06:01:46;99593.08;;;28.28;51.16
42177;BME280;28126;51.060;19.460;2022-08-19T06:04:50;99592.05;;;28.24;51.23
42177;BME280;28126;51.060;19.460;2022-08-19T06:07:52;99600.95;;;28.21;51.31
42177;BME280;28126;51.060;19.460;2022-08-19T06:10:55;99602.45;;;28.16;51.41
42177;BME280;28126;51.060;19.460;2022-08-19T06:13:57;99606.64;;;28.14;51.47
42177;BME280;28126;51.060;19.460;2022-08-19T06:17:03;99604.22;;;28.10;51.57
42177;BME280;28126;51.060;19.460;2022-08-19T06:20:09;99607.06;;;28.07;51.70
42177;BME280;28126;51.060;19.460;2022-08-19T06:23:13;99607.06;;;28.07;51.81
42177;BME280;28126;51.060;19.460;2022-08-19T06:26:17;99615.39;;;28.05;51.87
42177;BME280;28126;51.060;19.460;2022-08-19T06:29:23;99618.20;;;28.02;51.96
42177;BME280;28126;51.060;19.460;2022-08-19T06:32:25;99627.37;;;28.00;52.05
42177;BME280;28126;51.060;19.460;2022-08-19T06:35:26;99627.95;;;28.00;52.19
42177;BME280;28126;51.060;19.460;2022-08-19T06:38:31;99627.37;;;28.00;52.32
42177;BME280;28126;51.060;19.460;2022-08-19T06:41:37;99622.11;;;28.01;52.31
42177;BME280;28126;51.060;19.460;2022-08-19T06:44:42;99625.95;;;28.03;52.41
42177;BME280;28126;51.060;19.460;2022-08-19T06:47:44;99624.01;;;28.03;52.54
42177;BME280;28126;51.060;19.460;2022-08-19T06:50:47;99627.60;;;28.04;52.54
42177;BME280;28126;51.060;19.460;2022-08-19T06:53:53;99621.48;;;28.04;52.57
42177;BME280;28126;51.060;19.460;2022-08-19T06:56:59;99624.84;;;28.04;52.71
42177;BME280;28126;51.060;19.460;2022-08-19T07:00:05;99619.55;;;28.05;52.61
42177;BME280;28126;51.060;19.460;2022-08-19T07:03:08;99624.60;;;28.00;52.71
42177;BME280;28126;51.060;19.460;2022-08-19T07:06:14;99635.39;;;28.02;52.76
42177;BME280;28126;51.060;19.460;2022-08-19T07:09:18;99628.41;;;28.04;52.89
42177;BME280;28126;51.060;19.460;2022-08-19T07:12:19;99632.27;;;28.06;52.95
42177;BME280;28126;51.060;19.460;2022-08-19T07:15:21;99634.73;;;28.07;52.96
42177;BME280;28126;51.060;19.460;2022-08-19T07:18:24;99643.23;;;28.11;53.07
42177;BME280;28126;51.060;19.460;2022-08-19T07:21:28;99636.28;;;28.13;53.08
42177;BME280;28126;51.060;19.460;2022-08-19T07:24:31;99629.36;;;28.13;53.08
42177;BME280;28126;51.060;19.460;2022-08-19T07:27:33;99644.27;;;28.15;53.01
42177;BME280;28126;51.060;19.460;2022-08-19T07:30:38;99652.58;;;28.15;53.11
42177;BME280;28126;51.060;19.460;2022-08-19T07:33:41;99646.48;;;28.15;53.13
42177;BME280;28126;51.060;19.460;2022-08-19T07:36:45;99652.27;;;28.16;52.98
42177;BME280;28126;51.060;19.460;2022-08-19T07:39:49;99650.87;;;28.16;53.02
42177;BME280;28126;51.060;19.460;2022-08-19T07:42:50;99645.62;;;28.17;52.91
42177;BME280;28126;51.060;19.460;2022-08-19T07:45:54;99660.84;;;28.17;52.91
42177;BME280;28126;51.060;19.460;2022-08-19T07:48:59;99655.55;;;28.18;52.84
42177;BME280;28126;51.060;19.460;2022-08-19T07:52:06;99658.00;;;28.20;52.92
42177;BME280;28126;51.060;19.460;2022-08-19T07:55:10;99667.66;;;28.22;52.96
42177;BME280;28126;51.060;19.460;2022-08-19T07:58:16;99665.40;;;28.24;52.99
42177;BME280;28126;51.060;19.460;2022-08-19T08:01:22;99666.75;;;28.27;53.01
42177;BME280;28126;51.060;19.460;2022-08-19T08:04:24;99672.80;;;28.29;53.08
42177;BME280;28126;51.060;19.460;2022-08-19T08:07:44;99678.85;;;28.31;53.34
42177;BME280;28126;51.060;19.460;2022-08-19T08:11:05;99675.46;;;28.34;53.24
42177;BME280;28126;51.060;19.460;2022-08-19T08:14:08;99672.90;;;28.37;53.12
42177;BME280;28126;51.060;19.460;2022-08-19T08:17:11;99668.15;;;28.40;53.10
42177;BME280;28126;51.060;19.460;2022-08-19T08:20:14;99670.05;;;28.42;53.17
42177;BME280;28126;51.060;19.460;2022-08-19T08:23:16;99670.53;;;28.44;53.14
42177;BME280;28126;51.060;19.460;2022-08-19T08:26:24;99678.24;;;28.47;53.14
42177;BME280;28126;51.060;19.460;2022-08-19T08:29:30;99679.88;;;28.48;53.18
42177;BME280;28126;51.060;19.460;2022-08-19T08:32:32;99669.03;;;28.52;53.30
42177;BME280;28126;51.060;19.460;2022-08-19T08:35:34;99663.72;;;28.55;53.35
42177;BME280;28126;51.060;19.460;2022-08-19T08:38:37;99675.56;;;28.58;53.77
42177;BME280;28126;51.060;19.460;2022-08-19T08:41:53;99676.62;;;28.60;54.03
42177;BME280;28126;51.060;19.460;2022-08-19T08:45:10;99678.24;;;28.63;54.50
42177;BME280;28126;51.060;19.460;2022-08-19T08:48:24;99678.76;;;28.65;54.38
42177;BME280;28126;51.060;19.460;2022-08-19T08:51:27;99682.28;;;28.68;54.46
42177;BME280;28126;51.060;19.460;2022-08-19T08:54:40;99680.86;;;28.71;54.60
42177;BME280;28126;51.060;19.460;2022-08-19T09:00:55;99665.82;;;28.75;53.85
42177;BME280;28126;51.060;19.460;2022-08-19T09:03:58;99669.10;;;28.77;54.16
42177;BME280;28126;51.060;19.460;2022-08-19T09:07:45;99666.58;;;28.78;53.88
42177;BME280;28126;51.060;19.460;2022-08-19T09:10:55;99671.52;;;28.81;53.85
42177;BME280;28126;51.060;19.460;2022-08-19T09:14:23;99670.13;;;28.81;54.01
42177;BME280;28126;51.060;19.460;2022-08-19T09:17:27;99665.34;;;28.84;53.95
42177;BME280;28126;51.060;19.460;2022-08-19T09:20:34;99666.69;;;28.86;53.66
42177;BME280;28126;51.060;19.460;2022-08-19T09:23:37;99656.94;;;28.89;53.36
42177;BME280;28126;51.060;19.460;2022-08-19T09:26:39;99651.64;;;28.90;53.24
42177;BME280;28126;51.060;19.460;2022-08-19T09:29:41;99650.45;;;28.93;53.32
42177;BME280;28126;51.060;19.460;2022-08-19T09:32:44;99650.13;;;28.95;53.37
42177;BME280;28126;51.060;19.460;2022-08-19T09:35:46;99648.14;;;28.98;53.22
42177;BME280;28126;51.060;19.460;2022-08-19T09:38:48;99636.74;;;28.99;53.17
42177;BME280;28126;51.060;19.460;2022-08-19T09:41:50;99635.04;;;29.01;53.09
42177;BME280;28126;51.060;19.460;2022-08-19T09:44:51;99622.56;;;29.01;52.95
42177;BME280;28126;51.060;19.460;2022-08-19T09:47:53;99618.61;;;29.04;52.89
42177;BME280;28126;51.060;19.460;2022-08-19T09:50:55;99615.55;;;29.06;52.84
42177;BME280;28126;51.060;19.460;2022-08-19T09:54:01;99613.02;;;29.07;52.81
42177;BME280;28126;51.060;19.460;2022-08-19T09:57:03;99610.75;;;29.09;52.83
42177;BME280;28126;51.060;19.460;2022-08-19T10:00:08;99614.08;;;29.08;52.80
42177;BME280;28126;51.060;19.460;2022-08-19T10:03:10;99615.42;;;29.11;52.80
42177;BME280;28126;51.060;19.460;2022-08-19T10:06:12;99620.64;;;29.12;52.82
42177;BME280;28126;51.060;19.460;2022-08-19T10:09:16;99618.41;;;29.14;52.77
42177;BME280;28126;51.060;19.460;2022-08-19T10:12:18;99618.09;;;29.16;52.73
42177;BME280;28126;51.060;19.460;2022-08-19T10:15:19;99622.52;;;29.17;52.63
42177;BME280;28126;51.060;19.460;2022-08-19T10:18:24;99616.42;;;29.17;52.50
42177;BME280;28126;51.060;19.460;2022-08-19T10:21:31;99618.04;;;29.18;52.47
42177;BME280;28126;51.060;19.460;2022-08-19T10:24:34;99621.33;;;29.20;52.46
42177;BME280;28126;51.060;19.460;2022-08-19T10:27:36;99613.33;;;29.19;52.39
42177;BME280;28126;51.060;19.460;2022-08-19T10:30:40;99616.56;;;29.23;52.32
42177;BME280;28126;51.060;19.460;2022-08-19T10:33:43;99619.56;;;29.24;52.35
42177;BME280;28126;51.060;19.460;2022-08-19T10:36:44;99618.45;;;29.25;52.29
42177;BME280;28126;51.060;19.460;2022-08-19T10:39:46;99616.47;;;29.26;52.18
42177;BME280;28126;51.060;19.460;2022-08-19T10:42:48;99609.22;;;29.27;52.09
42177;BME280;28126;51.060;19.460;2022-08-19T10:45:55;99611.12;;;29.29;52.07
42177;BME280;28126;51.060;19.460;2022-08-19T10:49:01;99607.78;;;29.30;52.04
42177;BME280;28126;51.060;19.460;2022-08-19T10:52:04;99611.06;;;29.32;51.96
42177;BME280;28126;51.060;19.460;2022-08-19T10:55:24;99609.68;;;29.32;51.96
42177;BME280;28126;51.060;19.460;2022-08-19T10:58:44;99607.17;;;29.33;51.86
42177;BME280;28126;51.060;19.460;2022-08-19T11:01:46;99600.75;;;29.35;51.85
42177;BME280;28126;51.060;19.460;2022-08-19T11:04:48;99593.82;;;29.35;51.83
42177;BME280;28126;51.060;19.460;2022-08-19T11:07:51;99584.03;;;29.37;51.79
42177;BME280;28126;51.060;19.460;2022-08-19T11:10:54;99580.94;;;29.39;51.37
42177;BME280;28126;51.060;19.460;2022-08-19T11:13:58;99576.41;;;29.43;51.00
42177;BME280;28126;51.060;19.460;2022-08-19T11:17:02;99564.75;;;29.43;50.68
42177;BME280;28126;51.060;19.460;2022-08-19T11:20:04;99566.64;;;29.45;50.33
42177;BME280;28126;51.060;19.460;2022-08-19T11:23:06;99561.09;;;29.45;49.99
42177;BME280;28126;51.060;19.460;2022-08-19T11:26:07;99562.16;;;29.47;49.91
42177;BME280;28126;51.060;19.460;2022-08-19T11:29:12;99556.62;;;29.47;49.93
42177;BME280;28126;51.060;19.460;2022-08-19T11:32:14;99564.05;;;29.49;49.96
42177;BME280;28126;51.060;19.460;2022-08-19T11:35:16;99564.32;;;29.50;49.85
42177;BME280;28126;51.060;19.460;2022-08-19T11:38:20;99565.94;;;29.51;49.95
42177;BME280;28126;51.060;19.460;2022-08-19T11:41:23;99559.52;;;29.53;49.98
42177;BME280;28126;51.060;19.460;2022-08-19T11:44:25;99549.81;;;29.53;50.00
42177;BME280;28126;51.060;19.460;2022-08-19T11:47:27;99548.92;;;29.55;49.96
42177;BME280;28126;51.060;19.460;2022-08-19T11:50:29;99550.31;;;29.55;49.91
42177;BME280;28126;51.060;19.460;2022-08-19T11:53:30;99548.60;;;29.56;50.02
42177;BME280;28126;51.060;19.460;2022-08-19T11:56:32;99555.48;;;29.59;50.01
42177;BME280;28126;51.060;19.460;2022-08-19T11:59:33;99547.16;;;29.59;50.01
42177;BME280;28126;51.060;19.460;2022-08-19T12:02:35;99549.05;;;29.61;50.10
42177;BME280;28126;51.060;19.460;2022-08-19T12:05:38;99544.56;;;29.63;50.20
42177;BME280;28126;51.060;19.460;2022-08-19T12:08:42;99532.91;;;29.63;50.16
42177;BME280;28126;51.060;19.460;2022-08-19T12:11:44;99523.20;;;29.63;50.15
42177;BME280;28126;51.060;19.460;2022-08-19T12:14:46;99532.26;;;29.66;50.09
42177;BME280;28126;51.060;19.460;2022-08-19T12:17:48;99531.70;;;29.67;50.13
42177;BME280;28126;51.060;19.460;2022-08-19T12:20:51;99527.21;;;29.68;49.97
42177;BME280;28126;51.060;19.460;2022-08-19T12:23:53;99534.65;;;29.70;49.94
42177;BME280;28126;51.060;19.460;2022-08-19T12:26:55;99532.17;;;29.71;49.87
42177;BME280;28126;51.060;19.460;2022-08-19T12:29:57;99535.69;;;29.74;49.93
42177;BME280;28126;51.060;19.460;2022-08-19T12:33:01;99535.36;;;29.76;50.02
42177;BME280;28126;51.060;19.460;2022-08-19T12:36:06;99532.85;;;29.77;50.06
42177;BME280;28126;51.060;19.460;2022-08-19T12:39:09;99532.53;;;29.78;49.86
42177;BME280;28126;51.060;19.460;2022-08-19T12:42:12;99531.41;;;29.79;49.68
42177;BME280;28126;51.060;19.460;2022-08-19T12:45:14;99535.80;;;29.80;49.55
42177;BME280;28126;51.060;19.460;2022-08-19T12:48:15;99526.59;;;29.82;49.37
42177;BME280;28126;51.060;19.460;2022-08-19T12:51:18;99531.02;;;29.83;49.29
42177;BME280;28126;51.060;19.460;2022-08-19T12:54:22;99535.98;;;29.84;49.11
42177;BME280;28126;51.060;19.460;2022-08-19T12:57:27;99528.48;;;29.84;48.98
42177;BME280;28126;51.060;19.460;2022-08-19T13:00:30;99526.20;;;29.86;48.83
42177;BME280;28126;51.060;19.460;2022-08-19T13:03:33;99523.67;;;29.87;48.99
42177;BME280;28126;51.060;19.460;2022-08-19T13:06:34;99525.55;;;29.89;48.86
42177;BME280;28126;51.060;19.460;2022-08-19T13:09:37;99520.00;;;29.89;48.77
42177;BME280;28126;51.060;19.460;2022-08-19T13:12:39;99524.67;;;29.91;48.66
42177;BME280;28126;51.060;19.460;2022-08-19T13:15:42;99512.45;;;29.92;48.56
42177;BME280;28126;51.060;19.460;2022-08-19T13:18:47;99521.83;;;29.94;48.38
42177;BME280;28126;51.060;19.460;2022-08-19T13:21:52;99514.33;;;29.94;48.23
42177;BME280;28126;51.060;19.460;2022-08-19T13:24:56;99509.61;;;29.95;48.18
42177;BME280;28126;51.060;19.460;2022-08-19T13:27:59;99511.00;;;29.95;48.22
42177;BME280;28126;51.060;19.460;2022-08-19T13:31:01;99500.13;;;29.96;48.22
42177;BME280;28126;51.060;19.460;2022-08-19T13:34:32;99494.02;;;29.96;48.24
42177;BME280;28126;51.060;19.460;2022-08-19T13:37:31;99495.64;;;29.97;48.25
42177;BME280;28126;51.060;19.460;2022-08-19T13:40:45;99500.63;;;29.98;48.29
42177;BME280;28126;51.060;19.460;2022-08-19T13:43:47;99495.91;;;29.98;48.38
42177;BME280;28126;51.060;19.460;2022-08-19T13:46:50;99491.74;;;29.98;48.50
42177;BME280;28126;51.060;19.460;2022-08-19T13:49:54;99493.92;;;29.99;48.64
42177;BME280;28126;51.060;19.460;2022-08-19T13:52:56;99484.20;;;29.99;48.57
42177;BME280;28126;51.060;19.460;2022-08-19T13:55:57;99491.64;;;30.01;48.52
42177;BME280;28126;51.060;19.460;2022-08-19T13:58:59;99481.44;;;29.99;48.47
42177;BME280;28126;51.060;19.460;2022-08-19T14:02:01;99486.92;;;30.01;48.17
42177;BME280;28126;51.060;19.460;2022-08-19T14:05:03;99487.19;;;30.02;48.04
42177;BME280;28126;51.060;19.460;2022-08-19T14:08:05;99484.91;;;30.04;47.89
42177;BME280;28126;51.060;19.460;2022-08-19T14:11:09;99483.19;;;30.06;47.72
42177;BME280;28126;51.060;19.460;2022-08-19T14:14:10;99478.47;;;30.06;47.78
42177;BME280;28126;51.060;19.460;2022-08-19T14:17:12;99480.09;;;30.07;47.87
42177;BME280;28126;51.060;19.460;2022-08-19T14:20:14;99481.48;;;30.07;47.85
42177;BME280;28126;51.060;19.460;2022-08-19T14:23:16;99476.75;;;30.08;47.82
42177;BME280;28126;51.060;19.460;2022-08-19T14:26:19;99473.15;;;30.07;47.75
42177;BME280;28126;51.060;19.460;2022-08-19T14:29:21;99466.44;;;30.08;47.71
42177;BME280;28126;51.060;19.460;2022-08-19T14:32:22;99466.70;;;30.09;47.70
42177;BME280;28126;51.060;19.460;2022-08-19T14:35:25;99469.48;;;30.09;47.73
42177;BME280;28126;51.060;19.460;2022-08-19T14:38:27;99469.16;;;30.11;47.74
42177;BME280;28126;51.060;19.460;2022-08-19T14:41:31;99471.93;;;30.11;47.74
42177;BME280;28126;51.060;19.460;2022-08-19T14:44:33;99467.44;;;30.12;47.72
42177;BME280;28126;51.060;19.460;2022-08-19T14:47:35;99468.59;;;30.11;47.77
42177;BME280;28126;51.060;19.460;2022-08-19T14:50:37;99466.05;;;30.12;47.72
42177;BME280;28126;51.060;19.460;2022-08-19T14:53:39;99465.16;;;30.14;47.65
42177;BME280;28126;51.060;19.460;2022-08-19T14:56:40;99462.64;;;30.15;47.56
42177;BME280;28126;51.060;19.460;2022-08-19T14:59:44;99457.59;;;30.17;47.38
42177;BME280;28126;51.060;19.460;2022-08-19T15:02:45;99460.53;;;30.21;47.33
42177;BME280;28126;51.060;19.460;2022-08-19T15:05:46;99453.75;;;30.24;47.27
42177;BME280;28126;51.060;19.460;2022-08-19T15:08:50;99446.45;;;30.28;47.28
42177;BME280;28126;51.060;19.460;2022-08-19T15:11:52;99436.56;;;30.33;47.39
42177;BME280;28126;51.060;19.460;2022-08-19T15:14:55;99430.61;;;30.37;47.34
42177;BME280;28126;51.060;19.460;2022-08-19T15:17:57;99429.98;;;30.40;47.39
42177;BME280;28126;51.060;19.460;2022-08-19T15:21:01;99432.35;;;30.44;47.34
42177;BME280;28126;51.060;19.460;2022-08-19T15:24:03;99429.73;;;30.48;47.35
42177;BME280;28126;51.060;19.460;2022-08-19T15:27:05;99429.00;;;30.54;47.26
42177;BME280;28126;51.060;19.460;2022-08-19T15:30:10;99427.20;;;30.58;47.17
42177;BME280;28126;51.060;19.460;2022-08-19T15:33:12;99423.45;;;30.62;47.07
42177;BME280;28126;51.060;19.460;2022-08-19T15:36:15;99426.62;;;30.67;47.04
42177;BME280;28126;51.060;19.460;2022-08-19T15:39:17;99424.48;;;30.72;46.85
42177;BME280;28126;51.060;19.460;2022-08-19T15:42:19;99420.52;;;30.76;46.77
42177;BME280;28126;51.060;19.460;2022-08-19T15:45:21;99413.13;;;30.80;46.78
42177;BME280;28126;51.060;19.460;2022-08-19T15:48:23;99413.00;;;30.85;46.63
42177;BME280;28126;51.060;19.460;2022-08-19T15:51:29;99409.48;;;30.90;46.57
42177;BME280;28126;51.060;19.460;2022-08-19T15:54:31;99401.30;;;30.94;46.43
42177;BME280;28126;51.060;19.460;2022-08-19T15:57:32;99400.39;;;30.96;46.40
42177;BME280;28126;51.060;19.460;2022-08-19T16:00:52;99391.08;;;31.00;46.32
42177;BME280;28126;51.060;19.460;2022-08-19T16:04:13;99391.79;;;31.03;46.16